sensor_id;sensor_type;location;lat;lon;timestamp;P1;durP1;ratioP1;P2;durP2;ratioP2
21697;SDS011;11010;49.548;11.926;2022-07-29T00:00:15;5.40;;;1.38;;
21697;SDS011;11010;49.548;11.926;2022-07-29T00:02:43;5.72;;;1.35;;
21697;SDS011;11010;49.548;11.926;2022-07-29T00:05:11;5.75;;;1.30;;
21697;SDS011;11010;49.548;11.926;2022-07-29T00:07:40;6.60;;;1.45;;
21697;SDS011;11010;49.548;11.926;2022-07-29T00:10:08;5.72;;;1.40;;
21697;SDS011;11010;49.548;11.926;2022-07-29T00:12:35;6.28;;;1.52;;
21697;SDS011;11010;49.548;11.926;2022-07-29T00:15:03;5.72;;;1.50;;
21697;SDS011;11010;49.548;11.926;2022-07-29T00:17:31;5.55;;;1.60;;
21697;SDS011;11010;49.548;11.926;2022-07-29T00:20:00;5.90;;;1.42;;
21697;SDS011;11010;49.548;11.926;2022-07-29T00:22:28;5.93;;;1.45;;
21697;SDS011;11010;49.548;11.926;2022-07-29T00:24:56;5.18;;;1.50;;
21697;SDS011;11010;49.548;11.926;2022-07-29T00:27:23;5.00;;;1.38;;
21697;SDS011;11010;49.548;11.926;2022-07-29T00:29:51;6.88;;;1.50;;
21697;SDS011;11010;49.548;11.926;2022-07-29T00:32:19;6.82;;;1.52;;
21697;SDS011;11010;49.548;11.926;2022-07-29T00:34:46;8.00;;;1.70;;
21697;SDS011;11010;49.548;11.926;2022-07-29T00:37:32;5.32;;;1.40;;
21697;SDS011;11010;49.548;11.926;2022-07-29T00:40:00;5.82;;;1.40;;
21697;SDS011;11010;49.548;11.926;2022-07-29T00:42:28;7.03;;;1.50;;
21697;SDS011;11010;49.548;11.926;2022-07-29T00:44:56;6.72;;;1.45;;
21697;SDS011;11010;49.548;11.926;2022-07-29T00:47:23;5.78;;;1.60;;
21697;SDS011;11010;49.548;11.926;2022-07-29T00:49:51;5.82;;;1.30;;
21697;SDS011;11010;49.548;11.926;2022-07-29T00:52:19;5.90;;;1.50;;
21697;SDS011;11010;49.548;11.926;2022-07-29T00:54:47;8.07;;;1.50;;
21697;SDS011;11010;49.548;11.926;2022-07-29T00:57:15;5.68;;;1.50;;
21697;SDS011;11010;49.548;11.926;2022-07-29T00:59:43;6.07;;;1.50;;
21697;SDS011;11010;49.548;11.926;2022-07-29T01:02:10;5.53;;;1.60;;
21697;SDS011;11010;49.548;11.926;2022-07-29T01:04:38;6.75;;;1.30;;
21697;SDS011;11010;49.548;11.926;2022-07-29T01:07:07;6.70;;;1.40;;
21697;SDS011;11010;49.548;11.926;2022-07-29T01:09:35;6.22;;;1.50;;
21697;SDS011;11010;49.548;11.926;2022-07-29T01:12:19;6.05;;;1.60;;
21697;SDS011;11010;49.548;11.926;2022-07-29T01:14:51;6.47;;;1.38;;
21697;SDS011;11010;49.548;11.926;2022-07-29T01:17:24;4.53;;;1.23;;
21697;SDS011;11010;49.548;11.926;2022-07-29T01:23:08;7.00;;;1.95;;
21697;SDS011;11010;49.548;11.926;2022-07-29T01:31:11;5.97;;;1.38;;
21697;SDS011;11010;49.548;11.926;2022-07-29T01:33:55;6.50;;;1.50;;
21697;SDS011;11010;49.548;11.926;2022-07-29T01:39:05;6.03;;;1.48;;
21697;SDS011;11010;49.548;11.926;2022-07-29T01:47:40;5.45;;;1.50;;
21697;SDS011;11010;49.548;11.926;2022-07-29T01:50:31;5.50;;;1.20;;
21697;SDS011;11010;49.548;11.926;2022-07-29T01:53:02;5.18;;;1.20;;
21697;SDS011;11010;49.548;11.926;2022-07-29T01:55:35;5.65;;;1.35;;
21697;SDS011;11010;49.548;11.926;2022-07-29T01:58:06;8.57;;;1.55;;
21697;SDS011;11010;49.548;11.926;2022-07-29T02:00:35;5.18;;;1.48;;
21697;SDS011;11010;49.548;11.926;2022-07-29T02:03:05;5.68;;;1.45;;
21697;SDS011;11010;49.548;11.926;2022-07-29T02:05:37;4.53;;;1.20;;
21697;SDS011;11010;49.548;11.926;2022-07-29T02:08:07;6.05;;;1.33;;
21697;SDS011;11010;49.548;11.926;2022-07-29T02:10:36;6.68;;;1.27;;
21697;SDS011;11010;49.548;11.926;2022-07-29T02:13:07;6.85;;;1.50;;
21697;SDS011;11010;49.548;11.926;2022-07-29T02:15:38;11.73;;;1.52;;
21697;SDS011;11010;49.548;11.926;2022-07-29T02:18:18;7.93;;;1.42;;
21697;SDS011;11010;49.548;11.926;2022-07-29T02:20:50;6.18;;;1.50;;
21697;SDS011;11010;49.548;11.926;2022-07-29T02:23:21;5.72;;;1.42;;
21697;SDS011;11010;49.548;11.926;2022-07-29T02:25:53;6.10;;;1.60;;
21697;SDS011;11010;49.548;11.926;2022-07-29T02:28:24;7.47;;;1.40;;
21697;SDS011;11010;49.548;11.926;2022-07-29T02:30:55;6.60;;;1.58;;
21697;SDS011;11010;49.548;11.926;2022-07-29T02:33:27;7.38;;;1.63;;
21697;SDS011;11010;49.548;11.926;2022-07-29T02:35:58;6.03;;;1.35;;
21697;SDS011;11010;49.548;11.926;2022-07-29T02:38:28;5.13;;;1.35;;
21697;SDS011;11010;49.548;11.926;2022-07-29T02:41:28;6.47;;;1.50;;
21697;SDS011;11010;49.548;11.926;2022-07-29T02:44:10;7.97;;;1.50;;
21697;SDS011;11010;49.548;11.926;2022-07-29T02:49:48;7.63;;;1.52;;
21697;SDS011;11010;49.548;11.926;2022-07-29T02:55:09;7.07;;;1.60;;
21697;SDS011;11010;49.548;11.926;2022-07-29T03:00:47;6.82;;;1.33;;
21697;SDS011;11010;49.548;11.926;2022-07-29T03:03:18;6.88;;;1.35;;
21697;SDS011;11010;49.548;11.926;2022-07-29T03:05:48;6.22;;;1.50;;
21697;SDS011;11010;49.548;11.926;2022-07-29T03:08:15;5.45;;;1.40;;
21697;SDS011;11010;49.548;11.926;2022-07-29T03:10:44;6.50;;;1.50;;
21697;SDS011;11010;49.548;11.926;2022-07-29T03:13:13;7.03;;;1.40;;
21697;SDS011;11010;49.548;11.926;2022-07-29T03:15:42;7.43;;;1.40;;
21697;SDS011;11010;49.548;11.926;2022-07-29T03:18:11;6.13;;;1.52;;
21697;SDS011;11010;49.548;11.926;2022-07-29T03:20:40;6.88;;;1.65;;
21697;SDS011;11010;49.548;11.926;2022-07-29T03:23:08;5.53;;;1.40;;
21697;SDS011;11010;49.548;11.926;2022-07-29T03:25:36;5.63;;;1.45;;
21697;SDS011;11010;49.548;11.926;2022-07-29T03:28:04;5.88;;;1.48;;
21697;SDS011;11010;49.548;11.926;2022-07-29T03:30:31;7.07;;;1.60;;
21697;SDS011;11010;49.548;11.926;2022-07-29T03:32:59;7.55;;;1.58;;
21697;SDS011;11010;49.548;11.926;2022-07-29T03:35:27;6.13;;;1.52;;
21697;SDS011;11010;49.548;11.926;2022-07-29T03:37:56;5.07;;;1.40;;
21697;SDS011;11010;49.548;11.926;2022-07-29T03:40:31;5.60;;;1.40;;
21697;SDS011;11010;49.548;11.926;2022-07-29T03:43:05;7.32;;;1.60;;
21697;SDS011;11010;49.548;11.926;2022-07-29T03:45:34;6.63;;;1.48;;
21697;SDS011;11010;49.548;11.926;2022-07-29T03:48:03;6.53;;;1.67;;
21697;SDS011;11010;49.548;11.926;2022-07-29T03:50:35;5.80;;;1.58;;
21697;SDS011;11010;49.548;11.926;2022-07-29T03:53:03;7.00;;;1.77;;
21697;SDS011;11010;49.548;11.926;2022-07-29T03:55:32;4.88;;;1.42;;
21697;SDS011;11010;49.548;11.926;2022-07-29T03:58:04;5.45;;;1.38;;
21697;SDS011;11010;49.548;11.926;2022-07-29T04:00:34;6.10;;;1.40;;
21697;SDS011;11010;49.548;11.926;2022-07-29T04:03:03;5.63;;;1.50;;
21697;SDS011;11010;49.548;11.926;2022-07-29T04:05:37;5.90;;;1.42;;
21697;SDS011;11010;49.548;11.926;2022-07-29T04:08:05;6.95;;;1.60;;
21697;SDS011;11010;49.548;11.926;2022-07-29T04:10:33;7.03;;;1.52;;
21697;SDS011;11010;49.548;11.926;2022-07-29T04:13:01;6.30;;;1.58;;
21697;SDS011;11010;49.548;11.926;2022-07-29T04:15:29;5.88;;;1.80;;
21697;SDS011;11010;49.548;11.926;2022-07-29T04:17:58;6.70;;;1.70;;
21697;SDS011;11010;49.548;11.926;2022-07-29T04:20:26;5.22;;;1.30;;
21697;SDS011;11010;49.548;11.926;2022-07-29T04:22:54;4.80;;;1.40;;
21697;SDS011;11010;49.548;11.926;2022-07-29T04:25:22;5.35;;;1.40;;
21697;SDS011;11010;49.548;11.926;2022-07-29T04:27:49;6.43;;;1.52;;
21697;SDS011;11010;49.548;11.926;2022-07-29T04:30:33;6.85;;;1.60;;
21697;SDS011;11010;49.548;11.926;2022-07-29T04:33:02;6.70;;;1.50;;
21697;SDS011;11010;49.548;11.926;2022-07-29T04:35:33;6.82;;;1.77;;
21697;SDS011;11010;49.548;11.926;2022-07-29T04:38:05;6.82;;;1.75;;
21697;SDS011;11010;49.548;11.926;2022-07-29T04:40:42;5.65;;;1.50;;
21697;SDS011;11010;49.548;11.926;2022-07-29T04:43:10;6.63;;;1.45;;
21697;SDS011;11010;49.548;11.926;2022-07-29T04:45:39;5.78;;;1.40;;
21697;SDS011;11010;49.548;11.926;2022-07-29T04:48:07;5.75;;;1.30;;
21697;SDS011;11010;49.548;11.926;2022-07-29T04:50:37;5.75;;;1.50;;
21697;SDS011;11010;49.548;11.926;2022-07-29T04:53:06;8.82;;;1.52;;
21697;SDS011;11010;49.548;11.926;2022-07-29T04:55:34;7.05;;;1.83;;
21697;SDS011;11010;49.548;11.926;2022-07-29T04:58:04;5.80;;;1.42;;
21697;SDS011;11010;49.548;11.926;2022-07-29T05:00:32;5.93;;;1.52;;
21697;SDS011;11010;49.548;11.926;2022-07-29T05:03:00;5.57;;;1.40;;
21697;SDS011;11010;49.548;11.926;2022-07-29T05:05:28;5.97;;;1.40;;
21697;SDS011;11010;49.548;11.926;2022-07-29T05:07:55;6.18;;;1.40;;
21697;SDS011;11010;49.548;11.926;2022-07-29T05:10:23;6.05;;;1.40;;
21697;SDS011;11010;49.548;11.926;2022-07-29T05:12:51;5.03;;;1.40;;
21697;SDS011;11010;49.548;11.926;2022-07-29T05:15:19;5.75;;;1.60;;
21697;SDS011;11010;49.548;11.926;2022-07-29T05:17:47;5.47;;;1.50;;
21697;SDS011;11010;49.548;11.926;2022-07-29T05:20:14;5.30;;;1.50;;
21697;SDS011;11010;49.548;11.926;2022-07-29T05:22:42;5.72;;;1.50;;
21697;SDS011;11010;49.548;11.926;2022-07-29T05:25:10;6.55;;;1.58;;
21697;SDS011;11010;49.548;11.926;2022-07-29T05:27:37;6.72;;;1.42;;
21697;SDS011;11010;49.548;11.926;2022-07-29T05:30:05;6.25;;;1.40;;
21697;SDS011;11010;49.548;11.926;2022-07-29T05:32:34;6.20;;;1.50;;
21697;SDS011;11010;49.548;11.926;2022-07-29T05:35:01;6.07;;;1.40;;
21697;SDS011;11010;49.548;11.926;2022-07-29T05:37:29;6.28;;;1.55;;
21697;SDS011;11010;49.548;11.926;2022-07-29T05:39:57;9.13;;;1.60;;
21697;SDS011;11010;49.548;11.926;2022-07-29T05:42:25;6.95;;;1.40;;
21697;SDS011;11010;49.548;11.926;2022-07-29T05:44:53;8.45;;;1.60;;
21697;SDS011;11010;49.548;11.926;2022-07-29T05:47:21;6.70;;;1.60;;
21697;SDS011;11010;49.548;11.926;2022-07-29T05:49:49;6.15;;;1.50;;
21697;SDS011;11010;49.548;11.926;2022-07-29T05:52:17;5.32;;;1.55;;
21697;SDS011;11010;49.548;11.926;2022-07-29T05:54:45;7.05;;;2.05;;
21697;SDS011;11010;49.548;11.926;2022-07-29T05:57:16;5.40;;;1.40;;
21697;SDS011;11010;49.548;11.926;2022-07-29T05:59:46;7.03;;;1.45;;
21697;SDS011;11010;49.548;11.926;2022-07-29T06:02:15;6.22;;;1.60;;
21697;SDS011;11010;49.548;11.926;2022-07-29T06:04:46;8.82;;;1.50;;
21697;SDS011;11010;49.548;11.926;2022-07-29T06:07:17;7.03;;;1.70;;
21697;SDS011;11010;49.548;11.926;2022-07-29T06:09:50;7.97;;;1.67;;
21697;SDS011;11010;49.548;11.926;2022-07-29T06:12:19;7.40;;;1.77;;
21697;SDS011;11010;49.548;11.926;2022-07-29T06:14:48;6.43;;;1.52;;
21697;SDS011;11010;49.548;11.926;2022-07-29T06:17:19;6.35;;;1.70;;
21697;SDS011;11010;49.548;11.926;2022-07-29T06:19:47;7.30;;;1.60;;
21697;SDS011;11010;49.548;11.926;2022-07-29T06:22:15;5.97;;;1.50;;
21697;SDS011;11010;49.548;11.926;2022-07-29T06:24:43;7.13;;;1.50;;
21697;SDS011;11010;49.548;11.926;2022-07-29T06:27:11;5.18;;;1.55;;
21697;SDS011;11010;49.548;11.926;2022-07-29T06:29:39;5.50;;;1.48;;
21697;SDS011;11010;49.548;11.926;2022-07-29T06:32:07;6.15;;;1.73;;
21697;SDS011;11010;49.548;11.926;2022-07-29T06:34:35;6.82;;;1.48;;
21697;SDS011;11010;49.548;11.926;2022-07-29T06:37:08;7.10;;;1.50;;
21697;SDS011;11010;49.548;11.926;2022-07-29T06:39:41;6.10;;;1.42;;
21697;SDS011;11010;49.548;11.926;2022-07-29T06:42:09;7.00;;;1.55;;
21697;SDS011;11010;49.548;11.926;2022-07-29T06:44:37;6.57;;;1.70;;
21697;SDS011;11010;49.548;11.926;2022-07-29T06:47:05;7.15;;;1.50;;
21697;SDS011;11010;49.548;11.926;2022-07-29T06:49:32;6.10;;;1.48;;
21697;SDS011;11010;49.548;11.926;2022-07-29T06:52:00;6.55;;;1.58;;
21697;SDS011;11010;49.548;11.926;2022-07-29T06:54:29;7.97;;;1.85;;
21697;SDS011;11010;49.548;11.926;2022-07-29T06:56:56;7.50;;;1.90;;
21697;SDS011;11010;49.548;11.926;2022-07-29T06:59:25;6.85;;;1.60;;
21697;SDS011;11010;49.548;11.926;2022-07-29T07:02:01;6.55;;;1.50;;
21697;SDS011;11010;49.548;11.926;2022-07-29T07:04:29;8.07;;;1.60;;
21697;SDS011;11010;49.548;11.926;2022-07-29T07:06:57;7.78;;;1.75;;
21697;SDS011;11010;49.548;11.926;2022-07-29T07:09:26;7.13;;;1.70;;
21697;SDS011;11010;49.548;11.926;2022-07-29T07:12:06;6.20;;;1.55;;
21697;SDS011;11010;49.548;11.926;2022-07-29T07:14:34;7.28;;;1.67;;
21697;SDS011;11010;49.548;11.926;2022-07-29T07:17:02;7.82;;;1.90;;
21697;SDS011;11010;49.548;11.926;2022-07-29T07:19:30;6.82;;;1.63;;
21697;SDS011;11010;49.548;11.926;2022-07-29T07:21:58;6.40;;;1.52;;
21697;SDS011;11010;49.548;11.926;2022-07-29T07:24:27;7.68;;;1.85;;
21697;SDS011;11010;49.548;11.926;2022-07-29T07:26:54;8.52;;;2.00;;
21697;SDS011;11010;49.548;11.926;2022-07-29T07:29:22;7.35;;;1.80;;
21697;SDS011;11010;49.548;11.926;2022-07-29T07:31:50;8.02;;;1.60;;
21697;SDS011;11010;49.548;11.926;2022-07-29T07:34:23;6.32;;;1.95;;
21697;SDS011;11010;49.548;11.926;2022-07-29T07:36:55;7.85;;;1.80;;
21697;SDS011;11010;49.548;11.926;2022-07-29T07:39:22;6.85;;;1.77;;
21697;SDS011;11010;49.548;11.926;2022-07-29T07:41:50;7.93;;;1.73;;
21697;SDS011;11010;49.548;11.926;2022-07-29T07:44:18;8.02;;;1.80;;
21697;SDS011;11010;49.548;11.926;2022-07-29T07:46:46;7.22;;;1.80;;
21697;SDS011;11010;49.548;11.926;2022-07-29T07:49:14;7.93;;;1.70;;
21697;SDS011;11010;49.548;11.926;2022-07-29T07:51:42;6.65;;;1.70;;
21697;SDS011;11010;49.548;11.926;2022-07-29T07:54:16;8.05;;;1.90;;
21697;SDS011;11010;49.548;11.926;2022-07-29T07:56:46;7.82;;;2.20;;
21697;SDS011;11010;49.548;11.926;2022-07-29T07:59:19;6.30;;;1.77;;
21697;SDS011;11010;49.548;11.926;2022-07-29T08:01:46;6.18;;;1.90;;
21697;SDS011;11010;49.548;11.926;2022-07-29T08:04:22;7.07;;;1.85;;
21697;SDS011;11010;49.548;11.926;2022-07-29T08:06:55;7.90;;;1.83;;
21697;SDS011;11010;49.548;11.926;2022-07-29T08:09:25;6.90;;;1.90;;
21697;SDS011;11010;49.548;11.926;2022-07-29T08:11:57;7.28;;;2.08;;
21697;SDS011;11010;49.548;11.926;2022-07-29T08:14:26;7.10;;;2.03;;
21697;SDS011;11010;49.548;11.926;2022-07-29T08:16:54;6.55;;;1.90;;
21697;SDS011;11010;49.548;11.926;2022-07-29T08:19:23;8.65;;;1.80;;
21697;SDS011;11010;49.548;11.926;2022-07-29T08:21:54;6.95;;;1.90;;
21697;SDS011;11010;49.548;11.926;2022-07-29T08:24:22;7.88;;;2.20;;
21697;SDS011;11010;49.548;11.926;2022-07-29T08:27:26;8.38;;;1.85;;
21697;SDS011;11010;49.548;11.926;2022-07-29T08:30:11;6.70;;;1.80;;
21697;SDS011;11010;49.548;11.926;2022-07-29T08:32:39;7.30;;;2.10;;
21697;SDS011;11010;49.548;11.926;2022-07-29T08:35:20;8.05;;;2.40;;
21697;SDS011;11010;49.548;11.926;2022-07-29T08:37:49;7.75;;;2.30;;
21697;SDS011;11010;49.548;11.926;2022-07-29T08:40:17;7.07;;;2.00;;
21697;SDS011;11010;49.548;11.926;2022-07-29T08:42:58;10.23;;;2.35;;
21697;SDS011;11010;49.548;11.926;2022-07-29T08:45:42;8.10;;;2.35;;
21697;SDS011;11010;49.548;11.926;2022-07-29T08:48:17;7.15;;;2.30;;
21697;SDS011;11010;49.548;11.926;2022-07-29T08:50:47;7.00;;;2.15;;
21697;SDS011;11010;49.548;11.926;2022-07-29T08:53:17;8.13;;;2.42;;
21697;SDS011;11010;49.548;11.926;2022-07-29T08:55:46;7.78;;;2.10;;
21697;SDS011;11010;49.548;11.926;2022-07-29T08:58:16;8.07;;;2.70;;
21697;SDS011;11010;49.548;11.926;2022-07-29T09:00:51;8.85;;;3.00;;
21697;SDS011;11010;49.548;11.926;2022-07-29T09:03:25;7.75;;;2.35;;
21697;SDS011;11010;49.548;11.926;2022-07-29T09:05:59;7.72;;;2.55;;
21697;SDS011;11010;49.548;11.926;2022-07-29T09:08:27;7.88;;;2.58;;
21697;SDS011;11010;49.548;11.926;2022-07-29T09:10:55;9.45;;;2.50;;
21697;SDS011;11010;49.548;11.926;2022-07-29T09:13:23;7.78;;;2.30;;
21697;SDS011;11010;49.548;11.926;2022-07-29T09:15:51;9.73;;;2.67;;
21697;SDS011;11010;49.548;11.926;2022-07-29T09:18:35;7.78;;;2.63;;
21697;SDS011;11010;49.548;11.926;2022-07-29T09:21:09;8.07;;;2.70;;
21697;SDS011;11010;49.548;11.926;2022-07-29T09:24:00;7.35;;;2.65;;
21697;SDS011;11010;49.548;11.926;2022-07-29T09:26:32;7.93;;;2.80;;
21697;SDS011;11010;49.548;11.926;2022-07-29T09:31:39;7.40;;;2.67;;
21697;SDS011;11010;49.548;11.926;2022-07-29T09:34:10;10.23;;;2.92;;
21697;SDS011;11010;49.548;11.926;2022-07-29T09:36:44;8.55;;;2.80;;
21697;SDS011;11010;49.548;11.926;2022-07-29T09:39:26;8.60;;;3.13;;
21697;SDS011;11010;49.548;11.926;2022-07-29T09:41:55;7.68;;;2.83;;
21697;SDS011;11010;49.548;11.926;2022-07-29T09:44:24;11.18;;;3.67;;
21697;SDS011;11010;49.548;11.926;2022-07-29T09:49:24;8.10;;;2.90;;
21697;SDS011;11010;49.548;11.926;2022-07-29T09:51:59;10.02;;;3.38;;
21697;SDS011;11010;49.548;11.926;2022-07-29T09:54:28;7.50;;;3.00;;
21697;SDS011;11010;49.548;11.926;2022-07-29T09:57:01;9.70;;;2.83;;
21697;SDS011;11010;49.548;11.926;2022-07-29T09:59:29;8.45;;;2.88;;
21697;SDS011;11010;49.548;11.926;2022-07-29T10:01:57;9.00;;;3.00;;
21697;SDS011;11010;49.548;11.926;2022-07-29T10:04:38;7.68;;;2.70;;
21697;SDS011;11010;49.548;11.926;2022-07-29T10:07:07;7.90;;;2.90;;
21697;SDS011;11010;49.548;11.926;2022-07-29T10:09:35;10.13;;;3.08;;
21697;SDS011;11010;49.548;11.926;2022-07-29T10:14:37;8.52;;;2.60;;
21697;SDS011;11010;49.548;11.926;2022-07-29T10:17:06;7.95;;;2.72;;
21697;SDS011;11010;49.548;11.926;2022-07-29T10:19:35;7.70;;;2.83;;
21697;SDS011;11010;49.548;11.926;2022-07-29T10:22:06;7.97;;;2.80;;
21697;SDS011;11010;49.548;11.926;2022-07-29T10:24:36;7.43;;;2.85;;
21697;SDS011;11010;49.548;11.926;2022-07-29T10:27:06;7.72;;;2.22;;
21697;SDS011;11010;49.548;11.926;2022-07-29T10:29:35;8.05;;;2.53;;
21697;SDS011;11010;49.548;11.926;2022-07-29T10:34:53;7.18;;;2.40;;
21697;SDS011;11010;49.548;11.926;2022-07-29T10:40:21;8.02;;;2.80;;
21697;SDS011;11010;49.548;11.926;2022-07-29T10:43:28;8.48;;;2.80;;
21697;SDS011;11010;49.548;11.926;2022-07-29T10:46:03;7.45;;;2.47;;
21697;SDS011;11010;49.548;11.926;2022-07-29T10:48:33;6.60;;;2.38;;
21697;SDS011;11010;49.548;11.926;2022-07-29T10:51:04;7.10;;;2.47;;
21697;SDS011;11010;49.548;11.926;2022-07-29T10:53:52;7.03;;;2.42;;
21697;SDS011;11010;49.548;11.926;2022-07-29T11:01:53;6.40;;;2.10;;
21697;SDS011;11010;49.548;11.926;2022-07-29T11:07:14;8.00;;;2.35;;
21697;SDS011;11010;49.548;11.926;2022-07-29T11:09:43;9.07;;;2.58;;
21697;SDS011;11010;49.548;11.926;2022-07-29T11:20:43;6.70;;;2.22;;
21697;SDS011;11010;49.548;11.926;2022-07-29T11:34:25;7.93;;;2.20;;
21697;SDS011;11010;49.548;11.926;2022-07-29T11:37:19;7.78;;;2.50;;
21697;SDS011;11010;49.548;11.926;2022-07-29T11:47:55;6.28;;;2.08;;
21697;SDS011;11010;49.548;11.926;2022-07-29T11:50:54;7.93;;;2.00;;
21697;SDS011;11010;49.548;11.926;2022-07-29T11:53:24;6.65;;;2.20;;
21697;SDS011;11010;49.548;11.926;2022-07-29T11:56:13;6.65;;;2.28;;
21697;SDS011;11010;49.548;11.926;2022-07-29T11:58:51;6.80;;;2.13;;
21697;SDS011;11010;49.548;11.926;2022-07-29T12:01:34;6.57;;;2.00;;
21697;SDS011;11010;49.548;11.926;2022-07-29T12:04:03;7.43;;;2.20;;
21697;SDS011;11010;49.548;11.926;2022-07-29T12:06:36;6.93;;;2.30;;
21697;SDS011;11010;49.548;11.926;2022-07-29T12:09:07;6.80;;;2.10;;
21697;SDS011;11010;49.548;11.926;2022-07-29T12:11:40;6.63;;;2.10;;
21697;SDS011;11010;49.548;11.926;2022-07-29T12:16:54;6.68;;;2.30;;
21697;SDS011;11010;49.548;11.926;2022-07-29T12:19:22;6.70;;;2.25;;
21697;SDS011;11010;49.548;11.926;2022-07-29T12:21:52;7.03;;;2.00;;
21697;SDS011;11010;49.548;11.926;2022-07-29T12:24:24;8.13;;;2.30;;
21697;SDS011;11010;49.548;11.926;2022-07-29T12:26:53;7.07;;;2.05;;
21697;SDS011;11010;49.548;11.926;2022-07-29T12:29:23;6.72;;;2.13;;
21697;SDS011;11010;49.548;11.926;2022-07-29T12:32:01;7.05;;;2.10;;
21697;SDS011;11010;49.548;11.926;2022-07-29T12:34:31;6.80;;;2.40;;
21697;SDS011;11010;49.548;11.926;2022-07-29T12:36:59;7.35;;;2.10;;
21697;SDS011;11010;49.548;11.926;2022-07-29T12:39:28;6.63;;;2.28;;
21697;SDS011;11010;49.548;11.926;2022-07-29T12:41:55;7.28;;;2.33;;
21697;SDS011;11010;49.548;11.926;2022-07-29T12:44:43;7.25;;;2.53;;
21697;SDS011;11010;49.548;11.926;2022-07-29T12:47:12;6.68;;;2.22;;
21697;SDS011;11010;49.548;11.926;2022-07-29T12:49:40;6.78;;;2.10;;
21697;SDS011;11010;49.548;11.926;2022-07-29T12:52:24;7.60;;;2.50;;
21697;SDS011;11010;49.548;11.926;2022-07-29T12:54:59;6.70;;;2.40;;
21697;SDS011;11010;49.548;11.926;2022-07-29T12:57:27;6.82;;;1.90;;
21697;SDS011;11010;49.548;11.926;2022-07-29T13:02:34;7.93;;;2.58;;
21697;SDS011;11010;49.548;11.926;2022-07-29T13:05:03;8.98;;;2.20;;
21697;SDS011;11010;49.548;11.926;2022-07-29T13:07:33;6.70;;;2.17;;
21697;SDS011;11010;49.548;11.926;2022-07-29T13:10:23;7.20;;;2.47;;
21697;SDS011;11010;49.548;11.926;2022-07-29T13:13:01;6.90;;;2.30;;
21697;SDS011;11010;49.548;11.926;2022-07-29T13:15:28;6.55;;;2.15;;
21697;SDS011;11010;49.548;11.926;2022-07-29T13:17:56;7.93;;;2.30;;
21697;SDS011;11010;49.548;11.926;2022-07-29T13:20:25;7.95;;;2.30;;
21697;SDS011;11010;49.548;11.926;2022-07-29T13:22:59;7.05;;;2.20;;
21697;SDS011;11010;49.548;11.926;2022-07-29T13:25:29;5.82;;;2.00;;
21697;SDS011;11010;49.548;11.926;2022-07-29T13:27:59;7.38;;;2.60;;
21697;SDS011;11010;49.548;11.926;2022-07-29T13:30:27;6.65;;;2.47;;
21697;SDS011;11010;49.548;11.926;2022-07-29T13:32:54;7.57;;;2.10;;
21697;SDS011;11010;49.548;11.926;2022-07-29T13:35:22;7.07;;;2.50;;
21697;SDS011;11010;49.548;11.926;2022-07-29T13:37:50;7.40;;;2.47;;
21697;SDS011;11010;49.548;11.926;2022-07-29T13:40:17;8.30;;;2.45;;
21697;SDS011;11010;49.548;11.926;2022-07-29T13:42:45;7.18;;;2.50;;
21697;SDS011;11010;49.548;11.926;2022-07-29T13:45:13;6.15;;;2.25;;
21697;SDS011;11010;49.548;11.926;2022-07-29T13:47:41;9.05;;;2.50;;
21697;SDS011;11010;49.548;11.926;2022-07-29T13:50:15;8.57;;;3.00;;
21697;SDS011;11010;49.548;11.926;2022-07-29T13:52:42;8.60;;;2.70;;
21697;SDS011;11010;49.548;11.926;2022-07-29T13:55:10;7.15;;;2.70;;
21697;SDS011;11010;49.548;11.926;2022-07-29T13:57:38;8.73;;;2.80;;
21697;SDS011;11010;49.548;11.926;2022-07-29T14:00:06;7.40;;;2.67;;
21697;SDS011;11010;49.548;11.926;2022-07-29T14:02:34;7.70;;;3.08;;
21697;SDS011;11010;49.548;11.926;2022-07-29T14:05:02;7.85;;;2.60;;
21697;SDS011;11010;49.548;11.926;2022-07-29T14:07:33;7.50;;;2.75;;
21697;SDS011;11010;49.548;11.926;2022-07-29T14:10:02;8.23;;;3.13;;
21697;SDS011;11010;49.548;11.926;2022-07-29T14:12:30;8.68;;;2.92;;
21697;SDS011;11010;49.548;11.926;2022-07-29T14:14:58;8.23;;;2.78;;
21697;SDS011;11010;49.548;11.926;2022-07-29T14:17:26;9.10;;;2.70;;
21697;SDS011;11010;49.548;11.926;2022-07-29T14:19:54;7.82;;;2.88;;
21697;SDS011;11010;49.548;11.926;2022-07-29T14:22:22;8.13;;;3.00;;
21697;SDS011;11010;49.548;11.926;2022-07-29T14:24:51;9.45;;;2.90;;
21697;SDS011;11010;49.548;11.926;2022-07-29T14:27:19;7.95;;;2.75;;
21697;SDS011;11010;49.548;11.926;2022-07-29T14:30:04;8.93;;;2.75;;
21697;SDS011;11010;49.548;11.926;2022-07-29T14:32:33;9.45;;;3.10;;
21697;SDS011;11010;49.548;11.926;2022-07-29T14:35:00;8.23;;;2.85;;
21697;SDS011;11010;49.548;11.926;2022-07-29T14:37:28;7.07;;;2.60;;
21697;SDS011;11010;49.548;11.926;2022-07-29T14:40:06;11.45;;;3.22;;
21697;SDS011;11010;49.548;11.926;2022-07-29T14:42:35;8.02;;;2.80;;
21697;SDS011;11010;49.548;11.926;2022-07-29T14:45:04;8.57;;;3.30;;
21697;SDS011;11010;49.548;11.926;2022-07-29T14:47:33;9.48;;;3.00;;
21697;SDS011;11010;49.548;11.926;2022-07-29T14:50:01;6.82;;;2.65;;
21697;SDS011;11010;49.548;11.926;2022-07-29T14:52:29;8.00;;;2.90;;
21697;SDS011;11010;49.548;11.926;2022-07-29T14:54:57;7.82;;;2.67;;
21697;SDS011;11010;49.548;11.926;2022-07-29T14:57:25;10.07;;;2.80;;
21697;SDS011;11010;49.548;11.926;2022-07-29T14:59:53;8.32;;;2.83;;
21697;SDS011;11010;49.548;11.926;2022-07-29T15:02:21;8.32;;;2.92;;
21697;SDS011;11010;49.548;11.926;2022-07-29T15:05:09;9.15;;;3.00;;
21697;SDS011;11010;49.548;11.926;2022-07-29T15:07:37;8.55;;;2.95;;
21697;SDS011;11010;49.548;11.926;2022-07-29T15:10:05;8.80;;;3.38;;
21697;SDS011;11010;49.548;11.926;2022-07-29T15:12:34;7.55;;;2.78;;
21697;SDS011;11010;49.548;11.926;2022-07-29T15:15:02;8.80;;;2.80;;
21697;SDS011;11010;49.548;11.926;2022-07-29T15:17:30;8.63;;;2.58;;
21697;SDS011;11010;49.548;11.926;2022-07-29T15:19:57;7.53;;;2.58;;
21697;SDS011;11010;49.548;11.926;2022-07-29T15:22:26;7.93;;;2.83;;
21697;SDS011;11010;49.548;11.926;2022-07-29T15:24:54;8.18;;;3.00;;
21697;SDS011;11010;49.548;11.926;2022-07-29T15:27:22;9.73;;;2.70;;
21697;SDS011;11010;49.548;11.926;2022-07-29T15:29:49;7.45;;;2.60;;
21697;SDS011;11010;49.548;11.926;2022-07-29T15:32:17;8.90;;;3.00;;
21697;SDS011;11010;49.548;11.926;2022-07-29T15:34:45;8.65;;;3.20;;
21697;SDS011;11010;49.548;11.926;2022-07-29T15:37:14;7.88;;;3.00;;
21697;SDS011;11010;49.548;11.926;2022-07-29T15:39:42;8.07;;;2.65;;
21697;SDS011;11010;49.548;11.926;2022-07-29T15:42:09;8.23;;;2.60;;
21697;SDS011;11010;49.548;11.926;2022-07-29T15:44:37;9.10;;;2.60;;
21697;SDS011;11010;49.548;11.926;2022-07-29T15:47:05;8.85;;;2.85;;
21697;SDS011;11010;49.548;11.926;2022-07-29T15:49:34;8.85;;;2.65;;
21697;SDS011;11010;49.548;11.926;2022-07-29T15:52:18;8.02;;;2.55;;
21697;SDS011;11010;49.548;11.926;2022-07-29T15:54:52;8.57;;;2.35;;
21697;SDS011;11010;49.548;11.926;2022-07-29T15:57:22;8.70;;;2.97;;
21697;SDS011;11010;49.548;11.926;2022-07-29T15:59:50;8.40;;;2.35;;
21697;SDS011;11010;49.548;11.926;2022-07-29T16:02:18;8.27;;;2.80;;
21697;SDS011;11010;49.548;11.926;2022-07-29T16:04:46;7.30;;;2.50;;
21697;SDS011;11010;49.548;11.926;2022-07-29T16:07:14;7.40;;;2.28;;
21697;SDS011;11010;49.548;11.926;2022-07-29T16:09:42;7.00;;;2.33;;
21697;SDS011;11010;49.548;11.926;2022-07-29T16:12:18;7.93;;;2.75;;
21697;SDS011;11010;49.548;11.926;2022-07-29T16:14:46;7.45;;;2.35;;